Time;durP1;ratioP1;P1;durP2;ratioP2;P2;SDS_P1;SDS_P2;PMS_P1;PMS_P2;Temp;Humidity;BMP_temperature;BMP_pressure;BME280_temperature;BME280_humidity;BME280_pressure;Samples;Min_cycle;Max_cycle;Signal;HPM_P1;HPM_P2
2022/09/11 04:02:06;;;;;;;1.85;0.20;;;14.60;99.90;;;;;;4586408;23;89130;-78
2022/09/11 04:04:32;;;;;;;4.05;0.43;;;14.60;99.90;;;;;;4925810;28;86354;-81
2022/09/11 04:06:57;;;;;;;1.42;0.35;;;14.60;99.90;;;;;;4921771;28;86927;-82
2022/09/11 04:09:23;;;;;;;3.95;0.57;;;14.60;99.90;;;;;;4931231;28;87345;-78
2022/09/11 04:11:49;;;;;;;3.00;0.30;;;14.60;99.90;;;;;;4926207;28;86121;-75
2022/09/11 04:14:15;;;;;;;1.95;0.40;;;14.70;99.90;;;;;;4933647;28;86952;-75
2022/09/11 04:16:41;;;;;;;2.58;0.25;;;14.70;99.90;;;;;;4941137;28;86908;-78
2022/09/11 04:19:09;;;;;;;2.45;0.30;;;14.80;99.90;;;;;;4929636;28;88269;-76
2022/09/11 04:21:34;;;;;;;2.83;0.20;;;14.70;99.90;;;;;;4938012;28;87789;-77
2022/09/11 04:24:01;;;;;;;3.03;0.30;;;14.70;99.90;;;;;;4941544;28;86305;-75
2022/09/11 04:26:29;;;;;;;1.10;0.20;;;14.70;99.90;;;;;;4927504;28;86762;-77
2022/09/11 04:28:56;;;;;;;1.10;0.30;;;14.70;99.90;;;;;;4937408;28;87655;-79
2022/09/11 04:31:22;;;;;;;1.10;0.30;;;14.70;99.90;;;;;;4935628;28;86912;-76
2022/09/11 04:33:48;;;;;;;1.00;0.10;;;14.80;99.90;;;;;;4933115;28;86900;-76
2022/09/11 04:36:17;;;;;;;1.48;0.30;;;14.90;99.90;;;;;;4939478;28;85721;-77
2022/09/11 04:38:43;;;;;;;1.25;0.13;;;15.00;99.90;;;;;;4932354;28;86702;-78
2022/09/11 04:41:09;;;;;;;0.73;0.20;;;15.00;99.90;;;;;;4934796;28;87005;-77
2022/09/11 04:43:37;;;;;;;1.55;0.20;;;15.10;99.90;;;;;;4932804;28;87099;-76
2022/09/11 04:46:14;;;;;;;2.95;0.40;;;15.20;99.90;;;;;;4937846;28;86964;-77
2022/09/11 04:48:48;;;;;;;1.58;0.30;;;15.20;99.90;;;;;;4939819;28;87305;-77
2022/09/11 04:51:21;;;;;;;1.67;0.10;;;15.20;99.90;;;;;;4941533;28;87019;-75
2022/09/11 04:53:48;;;;;;;1.77;0.73;;;15.10;99.90;;;;;;4940472;28;86356;-77
2022/09/11 04:56:14;;;;;;;1.23;0.30;;;15.20;99.90;;;;;;4945238;28;86209;-77
2022/09/11 04:58:41;;;;;;;2.25;0.20;;;15.20;99.90;;;;;;4946716;28;87315;-76
2022/09/11 05:01:13;;;;;;;0.75;0.20;;;15.10;99.90;;;;;;4943256;28;86774;-75
2022/09/11 05:03:40;;;;;;;2.58;0.20;;;15.20;99.90;;;;;;4900832;28;86300;-77
2022/09/11 05:06:07;;;;;;;1.20;0.13;;;15.10;99.90;;;;;;4914874;28;86760;-77
2022/09/11 05:08:33;;;;;;;1.88;0.50;;;15.20;99.90;;;;;;4912970;28;88231;-76
2022/09/11 05:11:06;;;;;;;1.75;0.10;;;15.20;99.90;;;;;;4918984;28;88353;-78
2022/09/11 05:13:33;;;;;;;1.25;0.52;;;15.20;99.90;;;;;;4909464;28;86630;-78
2022/09/11 05:16:17;;;;;;;1.65;0.20;;;15.30;99.90;;;;;;4912704;28;86269;-78
2022/09/11 05:18:50;;;;;;;0.93;0.20;;;15.30;99.90;;;;;;4889459;28;87218;-76
2022/09/11 05:21:16;;;;;;;1.10;0.10;;;15.30;99.90;;;;;;4917868;28;86876;-76
2022/09/11 05:23:47;;;;;;;0.93;0.20;;;15.20;99.90;;;;;;4913404;28;86653;-76
2022/09/11 05:26:21;;;;;;;1.52;0.20;;;15.40;99.90;;;;;;4906619;28;85467;-76
2022/09/11 05:28:47;;;;;;;1.40;0.20;;;15.40;99.90;;;;;;4913247;28;87265;-76
2022/09/11 05:31:17;;;;;;;3.30;0.20;;;15.40;99.90;;;;;;4911897;28;86851;-77
2022/09/11 05:33:44;;;;;;;3.45;0.20;;;15.40;99.90;;;;;;4916895;28;87583;-76
2022/09/11 05:36:11;;;;;;;1.15;0.20;;;15.40;99.90;;;;;;4906087;28;86496;-76
2022/09/11 05:38:40;;;;;;;1.10;0.10;;;15.40;99.90;;;;;;4917710;28;87252;-75
2022/09/11 05:41:09;;;;;;;1.30;0.10;;;15.30;99.90;;;;;;4918453;28;87108;-76
2022/09/11 05:43:35;;;;;;;1.80;0.20;;;15.30;99.90;;;;;;4894069;28;86545;-76
2022/09/11 05:46:01;;;;;;;0.65;0.20;;;15.40;99.90;;;;;;4906620;28;86718;-76
2022/09/11 05:48:28;;;;;;;1.30;0.32;;;15.40;99.90;;;;;;4900644;28;86791;-76
2022/09/11 05:51:09;;;;;;;0.93;0.30;;;15.50;99.90;;;;;;4906260;28;86519;-77
2022/09/11 05:53:36;;;;;;;0.65;0.20;;;15.60;99.90;;;;;;4901113;28;86320;-80
2022/09/11 05:56:11;;;;;;;1.95;0.28;;;15.50;99.90;;;;;;4903086;28;86901;-79
2022/09/11 05:58:37;;;;;;;0.80;0.10;;;15.50;99.90;;;;;;4903674;28;87774;-79
2022/09/11 06:01:11;;;;;;;1.13;0.20;;;15.60;99.90;;;;;;4903222;28;87642;-78
2022/09/11 06:03:38;;;;;;;0.80;0.20;;;15.70;99.90;;;;;;4910445;28;86387;-77
2022/09/11 06:06:05;;;;;;;3.33;0.30;;;15.70;99.90;;;;;;4921360;28;86866;-78
2022/09/11 06:08:33;;;;;;;1.05;0.22;;;15.70;99.90;;;;;;4920202;28;86912;-77
2022/09/11 06:11:00;;;;;;;3.55;0.30;;;15.70;99.90;;;;;;4922397;28;87029;-77
2022/09/11 06:13:30;;;;;;;0.90;0.17;;;15.70;99.90;;;;;;4924923;28;86174;-76
2022/09/11 06:15:56;;;;;;;2.38;0.40;;;15.90;99.90;;;;;;4925207;28;85569;-76
2022/09/11 06:18:22;;;;;;;2.63;0.20;;;15.90;99.90;;;;;;4924993;28;88749;-76
2022/09/11 06:21:02;;;;;;;3.45;0.20;;;15.70;99.90;;;;;;4924978;28;86629;-76
2022/09/11 06:23:28;;;;;;;1.05;0.20;;;15.60;99.90;;;;;;4922417;28;87335;-76
2022/09/11 06:26:01;;;;;;;2.50;0.20;;;15.50;99.90;;;;;;4925151;28;87027;-77
2022/09/11 06:28:27;;;;;;;0.95;0.20;;;15.50;99.90;;;;;;4923776;28;86722;-78
2022/09/11 06:30:52;;;;;;;1.40;0.40;;;15.50;99.90;;;;;;4922122;28;88029;-77
2022/09/11 06:33:22;;;;;;;3.45;0.20;;;15.50;99.90;;;;;;4925355;28;86223;-80
2022/09/11 06:35:57;;;;;;;1.17;0.20;;;15.50;99.90;;;;;;4915864;28;86661;-76
2022/09/11 06:38:23;;;;;;;2.22;0.20;;;15.60;99.90;;;;;;4924568;28;87365;-76
2022/09/11 06:40:50;;;;;;;1.55;0.20;;;15.60;99.90;;;;;;4921597;28;86932;-87
2022/09/11 06:43:16;;;;;;;1.00;0.30;;;15.60;99.90;;;;;;4918962;28;86914;-79
2022/09/11 06:45:42;;;;;;;1.00;0.30;;;15.50;99.90;;;;;;4920646;28;87063;-79
2022/09/11 06:48:08;;;;;;;1.65;0.20;;;15.50;99.90;;;;;;4918516;28;88319;-80
2022/09/11 06:50:40;;;;;;;0.93;0.30;;;15.50;99.90;;;;;;4910218;28;87443;-80
2022/09/11 06:53:06;;;;;;;1.80;0.20;;;15.70;99.90;;;;;;4925135;28;86890;-79
2022/09/11 06:55:33;;;;;;;1.88;0.20;;;15.80;99.90;;;;;;4924029;28;86374;-77
2022/09/11 06:57:59;;;;;;;1.15;0.20;;;16.00;99.90;;;;;;4922411;28;87382;-84
2022/09/11 07:00:25;;;;;;;1.00;0.28;;;16.10;99.90;;;;;;4919602;28;86906;-77
2022/09/11 07:02:55;;;;;;;1.70;0.20;;;16.40;99.90;;;;;;4922025;28;86741;-76
2022/09/11 07:05:22;;;;;;;3.83;0.20;;;16.40;99.90;;;;;;4919238;28;85667;-77
2022/09/11 07:07:54;;;;;;;1.58;0.20;;;16.50;99.90;;;;;;4919310;28;87744;-77
2022/09/11 07:10:21;;;;;;;2.53;0.55;;;16.80;99.90;;;;;;4910033;28;88414;-77
2022/09/11 07:12:47;;;;;;;2.67;0.35;;;17.10;99.90;;;;;;4924579;28;87630;-78
2022/09/11 07:15:13;;;;;;;1.20;0.22;;;17.20;99.90;;;;;;4924080;28;86440;-76
2022/09/11 07:17:39;;;;;;;1.33;0.10;;;17.40;99.90;;;;;;4924415;28;87681;-77
2022/09/11 07:20:08;;;;;;;1.20;0.20;;;17.60;99.70;;;;;;4920032;28;88180;-77
2022/09/11 07:22:35;;;;;;;0.90;0.50;;;17.60;98.90;;;;;;4924411;28;86964;-77
2022/09/11 07:25:01;;;;;;;1.23;0.30;;;17.40;99.10;;;;;;4917977;28;87008;-78
2022/09/11 07:27:27;;;;;;;2.28;0.38;;;17.30;99.00;;;;;;4919195;28;87213;-77
2022/09/11 07:29:53;;;;;;;1.90;0.43;;;17.10;99.10;;;;;;4912088;28;86534;-77
2022/09/11 07:32:19;;;;;;;1.98;0.32;;;17.00;99.30;;;;;;4922474;28;87422;-82
2022/09/11 07:34:46;;;;;;;1.58;0.20;;;17.00;99.90;;;;;;4923578;28;86698;-78
2022/09/11 07:37:12;;;;;;;2.03;0.30;;;17.00;99.80;;;;;;4919814;28;88288;-77
2022/09/11 07:39:39;;;;;;;1.67;0.22;;;17.10;99.90;;;;;;4923883;28;87681;-78
2022/09/11 07:42:08;;;;;;;2.13;0.32;;;17.30;99.20;;;;;;4922278;28;86720;-80
2022/09/11 07:44:34;;;;;;;5.55;0.28;;;17.50;98.20;;;;;;4918334;28;86521;-77
2022/09/11 07:47:00;;;;;;;2.03;0.47;;;17.90;98.00;;;;;;4923567;28;86934;-80
2022/09/11 07:49:26;;;;;;;3.72;0.30;;;18.40;95.70;;;;;;4923598;28;87696;-80
2022/09/11 07:51:54;;;;;;;1.23;0.28;;;19.10;95.10;;;;;;4923393;28;86546;-80
2022/09/11 07:54:20;;;;;;;1.92;0.30;;;20.00;93.10;;;;;;4918199;28;85809;-77
2022/09/11 07:56:46;;;;;;;2.08;0.30;;;20.90;87.80;;;;;;4923783;28;87238;-77
2022/09/11 07:59:12;;;;;;;3.80;0.30;;;21.30;87.90;;;;;;4928982;28;87135;-78
2022/09/11 08:01:38;;;;;;;6.15;0.70;;;21.20;84.90;;;;;;4923668;28;87528;-77
2022/09/11 08:04:06;;;;;;;0.98;0.35;;;21.00;84.70;;;;;;4928493;28;86327;-78
2022/09/11 08:06:34;;;;;;;1.55;0.40;;;20.40;86.10;;;;;;4927089;28;87066;-80
2022/09/11 08:09:03;;;;;;;1.60;0.35;;;20.20;87.10;;;;;;4930780;28;86270;-83
2022/09/11 08:11:31;;;;;;;3.70;0.40;;;20.00;86.60;;;;;;4913216;28;87750;-77
2022/09/11 08:13:57;;;;;;;0.80;0.20;;;19.80;86.70;;;;;;4925488;28;86797;-77
2022/09/11 08:16:25;;;;;;;2.33;0.30;;;19.70;87.60;;;;;;4919268;28;87243;-78
2022/09/11 08:18:51;;;;;;;1.42;0.30;;;19.60;88.10;;;;;;4924338;28;86921;-78
2022/09/11 08:21:17;;;;;;;1.70;0.30;;;19.60;88.00;;;;;;4917249;28;86885;-77
2022/09/11 08:23:44;;;;;;;1.15;0.25;;;20.10;87.00;;;;;;4912837;28;86620;-77
2022/09/11 08:26:16;;;;;;;1.52;0.43;;;20.70;84.70;;;;;;4920442;28;88471;-80
2022/09/11 08:28:43;;;;;;;1.02;0.25;;;20.90;84.20;;;;;;4923838;28;87955;-80
2022/09/11 08:31:11;;;;;;;0.93;0.40;;;21.10;83.30;;;;;;4939306;28;86892;-81
2022/09/11 08:33:37;;;;;;;1.98;0.47;;;21.10;81.00;;;;;;4921396;28;86865;-81
2022/09/11 08:36:07;;;;;;;3.47;0.60;;;21.20;82.30;;;;;;4918685;28;87292;-81
2022/09/11 08:38:33;;;;;;;3.22;0.30;;;21.70;81.00;;;;;;4921105;28;87506;-85
2022/09/11 08:41:21;;;;;;;1.35;0.32;;;22.70;78.30;;;;;;4913206;28;87106;-78
2022/09/11 08:43:49;;;;;;;;;;;23.20;73.60;;;;;;4919377;28;85387;-81
2022/09/11 08:46:17;;;;;;;1.75;0.57;;;23.30;73.30;;;;;;4920743;28;88531;-79
2022/09/11 08:49:23;;;;;;;1.75;0.65;;;23.30;73.50;;;;;;4910977;28;86814;-77
2022/09/11 08:51:50;;;;;;;1.33;0.73;;;23.10;73.70;;;;;;4916351;28;88118;-79
2022/09/11 08:54:31;;;;;;;1.13;0.40;;;22.90;73.70;;;;;;4920735;28;86899;-77
2022/09/11 08:57:25;;;;;;;2.47;0.50;;;22.40;75.30;;;;;;4913612;28;87422;-78
2022/09/11 09:00:17;;;;;;;1.33;0.45;;;22.10;75.70;;;;;;4912422;28;87025;-80
2022/09/11 09:02:55;;;;;;;1.27;0.35;;;21.60;75.80;;;;;;4908678;28;86782;-77
2022/09/11 09:05:40;;;;;;;1.65;0.52;;;21.50;76.80;;;;;;4891326;28;86812;-79
2022/09/11 09:08:36;;;;;;;1.30;0.43;;;21.60;75.60;;;;;;4903717;28;87036;-80
2022/09/11 09:11:27;;;;;;;1.45;0.47;;;21.80;76.00;;;;;;4911270;28;87513;-77
2022/09/11 09:14:30;;;;;;;1.10;0.50;;;22.20;76.50;;;;;;4890535;28;86272;-77
2022/09/11 09:17:01;;;;;;;0.90;0.20;;;22.50;74.60;;;;;;4898685;28;86278;-78
2022/09/11 09:19:55;;;;;;;1.90;0.60;;;22.50;74.50;;;;;;4903459;28;88187;-77
2022/09/11 09:22:39;;;;;;;1.77;0.40;;;22.50;72.80;;;;;;4902749;28;87874;-78
2022/09/11 09:25:10;;;;;;;1.05;0.43;;;22.60;73.40;;;;;;4903640;28;86704;-80
2022/09/11 09:27:43;;;;;;;2.00;0.35;;;22.70;72.20;;;;;;4901705;28;86216;-84
2022/09/11 09:30:15;;;;;;;1.08;0.30;;;22.90;71.90;;;;;;4898490;28;87567;-82
2022/09/11 09:33:05;;;;;;;2.85;0.32;;;22.40;69.70;;;;;;4903321;28;86893;-81
2022/09/11 09:35:39;;;;;;;3.15;0.50;;;22.30;72.20;;;;;;4890968;28;89035;-77
2022/09/11 09:38:20;;;;;;;0.73;0.38;;;22.70;72.80;;;;;;4903194;28;85891;-77
2022/09/11 09:41:08;;;;;;;1.00;0.32;;;22.90;72.40;;;;;;4906904;28;86847;-78
2022/09/11 09:43:39;;;;;;;1.42;0.50;;;23.60;70.20;;;;;;4897292;28;88290;-77
2022/09/11 09:46:22;;;;;;;2.33;0.30;;;23.10;68.40;;;;;;4902751;28;87785;-77
2022/09/11 09:48:48;;;;;;;3.38;0.93;;;22.50;71.50;;;;;;4901361;28;87232;-77
2022/09/11 09:51:14;;;;;;;2.30;0.50;;;22.10;71.20;;;;;;4903189;28;87799;-77
2022/09/11 09:53:46;;;;;;;2.50;0.60;;;21.60;75.20;;;;;;4893666;28;87009;-76
2022/09/11 09:56:15;;;;;;;1.23;0.30;;;21.20;75.00;;;;;;4906796;28;86774;-77
2022/09/11 09:58:53;;;;;;;3.08;0.32;;;20.90;75.70;;;;;;4905557;28;86238;-78
2022/09/11 10:01:38;;;;;;;1.45;0.40;;;20.80;76.90;;;;;;4894590;28;87329;-77
2022/09/11 10:04:13;;;;;;;1.55;0.43;;;20.70;74.80;;;;;;4898490;28;87296;-80
2022/09/11 10:06:38;;;;;;;0.90;0.30;;;20.50;76.40;;;;;;4902971;28;87046;-78
2022/09/11 10:09:04;;;;;;;2.55;0.40;;;20.40;78.10;;;;;;4901929;28;86983;-82
2022/09/11 10:11:30;;;;;;;1.98;0.47;;;20.30;77.90;;;;;;4900523;28;88336;-75
2022/09/11 10:13:56;;;;;;;1.85;0.45;;;20.00;77.10;;;;;;4904965;28;87014;-78
2022/09/11 10:16:26;;;;;;;1.20;0.28;;;19.20;82.10;;;;;;4900324;28;86998;-84
2022/09/11 10:18:54;;;;;;;2.40;0.38;;;19.30;83.50;;;;;;4902817;28;86457;-77
2022/09/11 10:21:32;;;;;;;1.05;0.20;;;19.50;82.90;;;;;;4906720;28;86840;-80
2022/09/11 10:23:59;;;;;;;2.00;0.47;;;19.70;82.10;;;;;;4903849;28;86712;-80
2022/09/11 10:26:27;;;;;;;2.53;0.20;;;19.90;81.60;;;;;;4903846;28;86137;-79
2022/09/11 10:29:05;;;;;;;1.50;0.45;;;20.00;80.00;;;;;;4911550;28;86327;-81
2022/09/11 10:31:32;;;;;;;1.77;0.55;;;20.00;79.30;;;;;;4907480;28;87383;-80
2022/09/11 10:33:59;;;;;;;1.60;0.30;;;19.70;81.90;;;;;;4904950;28;86978;-80
2022/09/11 10:36:28;;;;;;;2.15;0.50;;;19.80;80.30;;;;;;4912846;28;87604;-78
2022/09/11 10:38:56;;;;;;;2.83;0.40;;;19.60;81.80;;;;;;4907256;28;86293;-84
2022/09/11 10:41:27;;;;;;;1.55;0.40;;;19.70;81.80;;;;;;4906367;28;86607;-80
2022/09/11 10:44:00;;;;;;;2.60;0.40;;;19.10;83.10;;;;;;4901243;28;86827;-79
2022/09/11 10:46:37;;;;;;;1.45;0.20;;;19.20;83.40;;;;;;4906552;28;86861;-79
2022/09/11 10:49:17;;;;;;;1.48;0.20;;;18.90;84.60;;;;;;4910827;28;86489;-79
2022/09/11 10:51:58;;;;;;;1.13;0.30;;;18.60;85.20;;;;;;4917983;28;87510;-83
2022/09/11 10:54:43;;;;;;;1.60;0.40;;;18.60;84.90;;;;;;4890917;28;86949;-79
2022/09/11 10:57:25;;;;;;;4.70;0.50;;;19.10;84.60;;;;;;4909186;28;86216;-81
2022/09/11 11:00:08;;;;;;;2.20;0.40;;;19.30;82.60;;;;;;4901912;28;86245;-79
2022/09/11 11:02:35;;;;;;;1.25;0.30;;;19.40;85.00;;;;;;4904881;28;87896;-83
2022/09/11 11:05:06;;;;;;;2.42;0.35;;;19.40;82.70;;;;;;4912435;28;87887;-82
2022/09/11 11:07:52;;;;;;;1.50;0.50;;;19.60;83.40;;;;;;4920591;28;86293;-79
2022/09/11 11:10:31;;;;;;;1.60;0.35;;;19.40;83.30;;;;;;4923597;28;86978;-80
2022/09/11 11:13:28;;;;;;;1.98;0.30;;;19.60;84.70;;;;;;4911120;28;86946;-80
2022/09/11 11:16:09;;;;;;;2.35;0.60;;;20.30;82.60;;;;;;4920678;28;86319;-80
2022/09/11 11:18:56;;;;;;;3.33;0.35;;;21.00;82.30;;;;;;4922423;28;86813;-80
2022/09/11 11:21:42;;;;;;;2.22;0.63;;;21.60;79.00;;;;;;4918095;28;85511;-86
2022/09/11 11:24:26;;;;;;;1.77;0.30;;;21.50;77.60;;;;;;4918671;28;87250;-79
2022/09/11 11:27:17;;;;;;;4.05;0.65;;;22.30;77.00;;;;;;4926470;28;86905;-81
2022/09/11 11:30:01;;;;;;;2.30;0.68;;;22.10;74.30;;;;;;4924163;28;87025;-79
2022/09/11 11:32:46;;;;;;;2.85;0.50;;;21.50;75.60;;;;;;4918357;28;86292;-77
2022/09/11 11:35:22;;;;;;;1.98;0.63;;;21.20;77.40;;;;;;4922231;28;86846;-78
2022/09/11 11:37:52;;;;;;;1.23;0.47;;;20.50;77.10;;;;;;4919931;28;86385;-77
2022/09/11 11:40:33;;;;;;;4.03;0.40;;;20.40;80.50;;;;;;4921056;28;86641;-77
2022/09/11 11:43:11;;;;;;;1.80;0.32;;;20.70;77.80;;;;;;4922494;28;86604;-78
2022/09/11 11:45:42;;;;;;;1.38;0.50;;;21.10;77.20;;;;;;4921073;28;86997;-79
2022/09/11 11:48:30;;;;;;;3.25;0.50;;;21.70;77.20;;;;;;4927553;28;87698;-77
2022/09/11 11:51:03;;;;;;;1.40;0.52;;;21.30;71.90;;;;;;4916034;28;86663;-80
2022/09/11 11:53:41;;;;;;;1.25;0.20;;;21.00;75.30;;;;;;4921061;28;86297;-77
2022/09/11 11:56:34;;;;;;;1.38;0.20;;;21.00;74.60;;;;;;4905434;28;89014;-78
2022/09/11 11:59:10;;;;;;;1.10;0.50;;;20.90;76.90;;;;;;4924260;28;87093;-78
2022/09/11 12:01:51;;;;;;;1.85;0.40;;;20.90;75.60;;;;;;4926312;28;86788;-78
2022/09/11 12:04:47;;;;;;;1.85;0.35;;;21.10;76.40;;;;;;4923438;28;86633;-79
2022/09/11 12:07:37;;;;;;;3.05;0.57;;;21.40;74.80;;;;;;4918834;28;87664;-79
2022/09/11 12:10:05;;;;;;;2.65;0.38;;;20.60;75.80;;;;;;4923238;28;87131;-78
2022/09/11 12:12:46;;;;;;;2.08;0.40;;;20.90;73.70;;;;;;4908266;28;88132;-77
2022/09/11 12:15:19;;;;;;;1.23;0.32;;;20.80;74.00;;;;;;4907122;28;86222;-77
2022/09/11 12:17:58;;;;;;;1.92;0.50;;;20.80;74.10;;;;;;4912626;28;87314;-75
2022/09/11 12:20:34;;;;;;;1.27;0.40;;;20.90;73.50;;;;;;4922754;28;86397;-77
2022/09/11 12:23:01;;;;;;;1.35;0.47;;;21.00;74.00;;;;;;4917171;28;88807;-77
2022/09/11 12:25:34;;;;;;;1.90;0.40;;;20.90;71.10;;;;;;4914781;28;86923;-80
2022/09/11 12:28:22;;;;;;;1.30;0.20;;;20.90;71.90;;;;;;4923606;28;87489;-85
2022/09/11 12:31:10;;;;;;;2.35;0.10;;;20.70;72.40;;;;;;4919793;28;86779;-84
2022/09/11 12:33:47;;;;;;;2.58;0.68;;;20.80;71.00;;;;;;4906951;28;86556;-82
2022/09/11 12:36:28;;;;;;;3.63;0.35;;;20.60;70.70;;;;;;4918727;28;86703;-83
2022/09/11 12:39:00;;;;;;;1.83;0.30;;;20.80;71.70;;;;;;4918951;28;87430;-86
2022/09/11 12:41:29;;;;;;;3.40;0.38;;;20.90;71.60;;;;;;4913643;28;86381;-83
2022/09/11 12:43:55;;;;;;;1.08;0.30;;;21.40;73.10;;;;;;4911894;28;87083;-84
2022/09/11 12:46:21;;;;;;;1.95;0.20;;;21.80;68.00;;;;;;4919911;28;86641;-84
2022/09/11 12:48:50;;;;;;;0.93;0.22;;;21.90;72.60;;;;;;4919985;28;88667;-84
2022/09/11 12:51:28;;;;;;;;;;;22.10;69.20;;;;;;4921269;28;87852;-82
2022/09/11 12:54:01;;;;;;;2.83;0.40;;;22.20;69.10;;;;;;4917025;28;86809;-82
2022/09/11 12:56:35;;;;;;;2.30;0.85;;;22.30;68.00;;;;;;4913783;28;86350;-81
2022/09/11 12:59:08;;;;;;;2.42;0.85;;;22.20;70.80;;;;;;4910057;28;87725;-84
2022/09/11 13:01:42;;;;;;;1.95;0.20;;;22.20;70.10;;;;;;4911946;28;87510;-84
2022/09/11 13:04:08;;;;;;;2.97;0.43;;;22.00;69.50;;;;;;4913853;28;87505;-85
2022/09/11 13:06:56;;;;;;;2.55;0.70;;;21.90;70.60;;;;;;4908482;28;86397;-85
2022/09/11 13:09:37;;;;;;;1.20;0.40;;;21.90;70.10;;;;;;4912638;28;87063;-84
2022/09/11 13:12:18;;;;;;;1.40;0.40;;;21.60;71.50;;;;;;4911162;28;87493;-80
2022/09/11 13:14:56;;;;;;;0.88;0.30;;;21.80;70.80;;;;;;4924254;28;87896;-83
2022/09/11 13:17:29;;;;;;;1.90;0.68;;;22.00;70.40;;;;;;4919187;28;88051;-83
2022/09/11 13:20:09;;;;;;;1.88;0.57;;;21.70;72.30;;;;;;4929304;28;87167;-83
2022/09/11 13:22:36;;;;;;;1.55;0.50;;;21.90;71.00;;;;;;4929439;28;87033;-82
2022/09/11 13:25:15;;;;;;;1.98;0.40;;;21.90;73.00;;;;;;4930178;28;86250;-86
2022/09/11 13:27:46;;;;;;;4.20;0.50;;;22.10;69.60;;;;;;4925202;28;86225;-86
2022/09/11 13:30:18;;;;;;;1.00;0.35;;;22.20;70.50;;;;;;4922010;28;87097;-83
2022/09/11 13:32:47;;;;;;;1.63;0.28;;;22.50;68.50;;;;;;4923249;28;88357;-84
2022/09/11 13:35:22;;;;;;;1.50;0.45;;;22.00;69.10;;;;;;4926767;28;88020;-82
2022/09/11 13:38:08;;;;;;;1.45;0.60;;;21.90;69.70;;;;;;4920155;28;86535;-81
2022/09/11 13:40:54;;;;;;;1.08;0.40;;;22.00;69.40;;;;;;4917255;28;88310;-80
2022/09/11 13:43:31;;;;;;;1.08;0.32;;;22.20;69.50;;;;;;4927187;28;87890;-80
2022/09/11 13:46:14;;;;;;;3.55;0.50;;;21.90;70.20;;;;;;4933527;28;86174;-87
2022/09/11 13:48:45;;;;;;;2.25;0.47;;;22.10;69.70;;;;;;4909088;28;87899;-84
2022/09/11 13:51:13;;;;;;;1.52;0.50;;;21.70;70.50;;;;;;4921515;28;87295;-82
2022/09/11 13:53:40;;;;;;;1.80;0.40;;;21.60;68.80;;;;;;4923275;28;86206;-82
2022/09/11 13:56:19;;;;;;;2.55;0.50;;;21.60;70.60;;;;;;4920336;28;87098;-84
2022/09/11 13:58:45;;;;;;;2.38;0.30;;;21.60;70.50;;;;;;4922486;28;85801;-80
2022/09/11 14:01:15;;;;;;;1.05;0.35;;;21.60;69.20;;;;;;4925454;28;87299;-81
2022/09/11 14:03:46;;;;;;;0.95;0.50;;;21.50;69.90;;;;;;4918274;28;86851;-81
2022/09/11 14:06:17;;;;;;;1.60;0.88;;;21.30;69.60;;;;;;4922111;28;87247;-83
2022/09/11 14:08:55;;;;;;;1.02;0.32;;;21.00;71.50;;;;;;4919719;28;86785;-79
2022/09/11 14:11:30;;;;;;;1.15;0.40;;;20.90;71.60;;;;;;4921157;28;87229;-81
2022/09/11 14:14:17;;;;;;;0.93;0.30;;;21.10;70.70;;;;;;4918312;28;86692;-83
2022/09/11 14:16:56;;;;;;;1.73;0.20;;;21.30;70.40;;;;;;4910544;28;86187;-85
2022/09/11 14:19:29;;;;;;;2.08;0.82;;;21.10;69.70;;;;;;4920686;28;86843;-83
2022/09/11 14:21:55;;;;;;;1.50;0.30;;;21.30;69.90;;;;;;4920624;28;86370;-82
2022/09/11 14:24:31;;;;;;;2.28;0.43;;;21.70;69.60;;;;;;4920211;28;86793;-82
2022/09/11 14:27:00;;;;;;;2.45;0.50;;;21.80;68.60;;;;;;4920213;28;86370;-81
2022/09/11 14:29:32;;;;;;;3.25;0.50;;;21.90;66.10;;;;;;4920780;28;86982;-83
2022/09/11 14:32:38;;;;;;;1.50;0.40;;;21.40;66.90;;;;;;4901687;28;91734;-81
2022/09/11 14:35:07;;;;;;;1.00;0.52;;;21.70;65.80;;;;;;4919335;28;87129;-80
2022/09/11 14:37:39;;;;;;;1.40;0.43;;;22.00;66.20;;;;;;4920490;28;86284;-81
2022/09/11 14:40:12;;;;;;;3.08;0.35;;;22.20;69.20;;;;;;4921822;28;87115;-81
2022/09/11 14:42:40;;;;;;;2.95;0.60;;;22.50;64.20;;;;;;4913913;28;88415;-81
2022/09/11 14:45:08;;;;;;;1.30;0.50;;;22.30;64.70;;;;;;4919956;28;87107;-80
2022/09/11 14:47:33;;;;;;;2.60;0.32;;;22.30;65.00;;;;;;4918993;28;86924;-83
2022/09/11 14:49:59;;;;;;;1.05;0.52;;;22.30;63.40;;;;;;4921562;28;85861;-81
2022/09/11 14:52:27;;;;;;;1.42;0.40;;;22.20;65.20;;;;;;4928856;28;88003;-80
2022/09/11 14:54:53;;;;;;;0.88;0.20;;;22.10;65.80;;;;;;4930080;28;89492;-77
2022/09/11 14:57:25;;;;;;;1.58;0.22;;;21.90;68.10;;;;;;4935164;28;87255;-77
2022/09/11 14:59:54;;;;;;;3.33;0.50;;;21.90;65.30;;;;;;4922976;28;86782;-77
2022/09/11 15:02:22;;;;;;;1.10;0.30;;;21.70;67.20;;;;;;4935876;28;88335;-80
2022/09/11 15:04:48;;;;;;;2.83;0.32;;;21.40;67.60;;;;;;4906493;28;86499;-79
2022/09/11 15:07:16;;;;;;;1.00;0.28;;;21.40;67.60;;;;;;4926523;28;86655;-78
2022/09/11 15:09:42;;;;;;;1.35;0.30;;;21.20;67.90;;;;;;4920888;28;87503;-79
2022/09/11 15:12:09;;;;;;;1.13;0.40;;;21.20;66.70;;;;;;4919467;28;86980;-80
2022/09/11 15:14:36;;;;;;;2.65;0.40;;;21.10;67.30;;;;;;4921840;28;87105;-80
2022/09/11 15:17:03;;;;;;;2.67;0.50;;;21.10;68.70;;;;;;4917436;28;86941;-79
2022/09/11 15:19:30;;;;;;;0.90;0.50;;;21.10;68.90;;;;;;4908515;28;86609;-78
2022/09/11 15:21:57;;;;;;;1.60;0.43;;;21.20;67.00;;;;;;4918271;28;88417;-78
2022/09/11 15:24:24;;;;;;;1.30;0.60;;;21.30;69.60;;;;;;4902508;28;89836;-79
2022/09/11 15:26:51;;;;;;;1.48;0.30;;;21.50;65.60;;;;;;4935711;28;87032;-77
2022/09/11 15:29:17;;;;;;;0.80;0.40;;;21.40;64.70;;;;;;4932097;28;86559;-78
2022/09/11 15:31:43;;;;;;;1.42;0.30;;;21.40;65.30;;;;;;4933793;28;86711;-79
2022/09/11 15:34:10;;;;;;;2.15;0.30;;;21.40;66.10;;;;;;4927448;28;86732;-81
2022/09/11 15:36:40;;;;;;;1.10;0.40;;;21.30;67.30;;;;;;4927924;28;86518;-82
2022/09/11 15:39:10;;;;;;;1.08;0.47;;;21.30;66.00;;;;;;4931511;28;85533;-80
2022/09/11 15:41:36;;;;;;;0.93;0.40;;;21.10;66.70;;;;;;4917895;28;86833;-77
2022/09/11 15:44:09;;;;;;;1.20;0.40;;;21.00;67.60;;;;;;4929583;28;87281;-78
2022/09/11 15:46:34;;;;;;;1.92;0.30;;;21.10;65.60;;;;;;4930887;28;87257;-80
2022/09/11 15:49:00;;;;;;;1.08;0.30;;;21.10;64.60;;;;;;4925552;28;86481;-78
2022/09/11 15:51:26;;;;;;;1.23;0.30;;;21.00;65.70;;;;;;4919593;28;87304;-78
2022/09/11 15:53:52;;;;;;;1.65;0.57;;;21.00;66.00;;;;;;4929297;28;86875;-78
2022/09/11 15:56:19;;;;;;;2.05;0.35;;;20.90;67.20;;;;;;4933930;28;86274;-78
2022/09/11 15:58:46;;;;;;;1.42;0.40;;;20.80;67.60;;;;;;4917343;28;88146;-81
2022/09/11 16:01:23;;;;;;;1.00;0.30;;;20.70;67.80;;;;;;4926946;28;87135;-82
2022/09/11 16:03:54;;;;;;;0.47;0.20;;;20.70;67.30;;;;;;4915169;28;86232;-80
2022/09/11 16:06:21;;;;;;;0.90;0.25;;;20.60;67.40;;;;;;4909865;28;86427;-84
2022/09/11 16:08:46;;;;;;;2.42;0.30;;;20.60;68.70;;;;;;4919402;28;86907;-83
2022/09/11 16:11:14;;;;;;;1.48;0.40;;;20.60;71.30;;;;;;4923860;28;88659;-80
2022/09/11 16:13:40;;;;;;;3.47;1.80;;;20.60;69.10;;;;;;4908234;28;88047;-84
2022/09/11 16:16:06;;;;;;;1.85;0.63;;;20.50;69.00;;;;;;4906563;28;86935;-82
2022/09/11 16:18:36;;;;;;;1.08;0.40;;;20.30;68.50;;;;;;4921376;28;86356;-82
2022/09/11 16:21:04;;;;;;;3.55;0.35;;;20.40;68.20;;;;;;4917761;28;86742;-81
2022/09/11 16:23:30;;;;;;;2.13;0.70;;;20.40;69.50;;;;;;4909735;28;86849;-82
2022/09/11 16:26:00;;;;;;;1.55;0.38;;;20.30;67.90;;;;;;4911329;28;87171;-82
2022/09/11 16:28:26;;;;;;;0.75;0.20;;;20.30;68.00;;;;;;4916739;28;85543;-81
2022/09/11 16:30:52;;;;;;;0.90;0.40;;;20.20;67.60;;;;;;4913263;28;89001;-82
2022/09/11 16:33:18;;;;;;;1.10;0.50;;;20.20;67.10;;;;;;4915359;28;86338;-85
2022/09/11 16:35:54;;;;;;;1.13;0.30;;;20.30;66.60;;;;;;4913486;28;87746;-80
2022/09/11 16:38:20;;;;;;;0.77;0.28;;;20.20;67.20;;;;;;4903276;28;86316;-84
2022/09/11 16:40:45;;;;;;;0.85;0.20;;;20.00;66.80;;;;;;4914071;28;86583;-83
2022/09/11 16:43:13;;;;;;;3.05;0.95;;;19.90;67.60;;;;;;4916727;28;87043;-79
2022/09/11 16:45:39;;;;;;;3.25;1.02;;;19.90;68.00;;;;;;4916029;28;86783;-81
2022/09/11 16:48:05;;;;;;;3.15;1.25;;;19.90;69.30;;;;;;4918440;28;86295;-82
2022/09/11 16:50:31;;;;;;;1.63;0.60;;;19.80;68.90;;;;;;4916618;28;87129;-83
2022/09/11 16:52:57;;;;;;;1.45;0.55;;;19.70;69.30;;;;;;4902036;28;89148;-80
2022/09/11 16:55:24;;;;;;;1.33;0.30;;;19.70;69.40;;;;;;4899888;28;86407;-80
2022/09/11 16:57:50;;;;;;;1.92;0.30;;;19.50;69.10;;;;;;4915535;28;86965;-79
2022/09/11 17:00:16;;;;;;;2.90;0.50;;;19.50;70.00;;;;;;4895960;28;89652;-81
2022/09/11 17:02:42;;;;;;;0.70;0.28;;;19.30;71.20;;;;;;4910284;28;87729;-82
2022/09/11 17:05:08;;;;;;;0.95;0.30;;;19.20;71.30;;;;;;4906751;28;86727;-79
2022/09/11 17:07:35;;;;;;;3.30;0.40;;;19.30;71.70;;;;;;4925835;28;86677;-80
2022/09/11 17:10:02;;;;;;;1.35;0.40;;;19.40;73.40;;;;;;4911467;28;87365;-82
2022/09/11 17:12:27;;;;;;;1.00;0.35;;;19.40;73.90;;;;;;4917456;28;86965;-79